Time;durP1;ratioP1;P1;durP2;ratioP2;P2;SDS_P1;SDS_P2;PMS_P1;PMS_P2;Temp;Humidity;BMP_temperature;BMP_pressure;BME280_temperature;BME280_humidity;BME280_pressure;Samples;Min_cycle;Max_cycle;Signal;HPM_P1;HPM_P2
2022/06/21 05:33:02;;;;;;;9.60;7.87;;;;;;;;;;7389406;19;20259;-87
2022/06/21 05:35:32;;;;;;;10.13;8.40;;;;;;;;;;7394373;19;20615;-88
2022/06/21 05:38:04;;;;;;;9.55;8.40;;;;;;;;;;7398910;19;20121;-86
2022/06/21 05:40:48;;;;;;;9.27;7.53;;;;;;;;;;7396702;19;20137;-86
2022/06/21 05:43:16;;;;;;;10.82;8.73;;;;;;;;;;7393745;19;20129;-84
2022/06/21 05:45:45;;;;;;;8.82;7.93;;;;;;;;;;7387264;19;20133;-87
2022/06/21 05:48:20;;;;;;;9.10;8.20;;;;;;;;;;7396197;19;20673;-86
2022/06/21 05:50:46;;;;;;;9.13;7.55;;;;;;;;;;7394814;19;20148;-86
2022/06/21 05:53:14;;;;;;;12.35;7.90;;;;;;;;;;7390164;19;20137;-89
2022/06/21 05:55:43;;;;;;;9.75;7.63;;;;;;;;;;7390033;19;20132;-86
2022/06/21 05:58:21;;;;;;;7.95;7.25;;;;;;;;;;7392641;19;20135;-85
2022/06/21 06:00:50;;;;;;;8.30;7.28;;;;;;;;;;7389462;19;20183;-85
2022/06/21 06:03:20;;;;;;;10.15;7.53;;;;;;;;;;7386153;19;20160;-85
2022/06/21 06:05:46;;;;;;;11.40;7.85;;;;;;;;;;7383538;19;20133;-85
2022/06/21 06:08:21;;;;;;;8.40;7.18;;;;;;;;;;7396105;19;20482;-83
2022/06/21 06:10:48;;;;;;;7.80;6.68;;;;;;;;;;7391413;19;20147;-86
2022/06/21 06:13:18;;;;;;;7.43;6.35;;;;;;;;;;7389091;19;20122;-85
2022/06/21 06:16:06;;;;;;;9.95;7.70;;;;;;;;;;7394708;19;20121;-85
2022/06/21 06:18:35;;;;;;;7.13;6.32;;;;;;;;;;7395330;19;20124;-84
2022/06/21 06:21:17;;;;;;;6.85;6.13;;;;;;;;;;7395460;19;20193;-88
2022/06/21 06:23:55;;;;;;;9.55;6.28;;;;;;;;;;7392410;19;20133;-87
2022/06/21 06:26:24;;;;;;;8.20;6.50;;;;;;;;;;7393888;19;20129;-87
2022/06/21 06:29:11;;;;;;;7.78;6.97;;;;;;;;;;7399885;19;20125;-87
2022/06/21 06:31:44;;;;;;;7.22;6.53;;;;;;;;;;7398683;19;20164;-87
2022/06/21 06:34:13;;;;;;;9.57;6.60;;;;;;;;;;7404777;19;20142;-87
2022/06/21 06:36:46;;;;;;;8.73;6.70;;;;;;;;;;7403976;19;20129;-88
2022/06/21 06:39:23;;;;;;;7.75;6.70;;;;;;;;;;7402756;19;20639;-89
2022/06/21 06:41:49;;;;;;;9.20;7.03;;;;;;;;;;7399462;19;20684;-87
2022/06/21 06:44:16;;;;;;;7.63;6.75;;;;;;;;;;7404274;19;20153;-88
2022/06/21 06:46:49;;;;;;;7.22;6.47;;;;;;;;;;7400468;19;20118;-91
2022/06/21 06:49:15;;;;;;;8.80;7.70;;;;;;;;;;7403475;19;20157;-88
2022/06/21 06:51:47;;;;;;;9.05;6.90;;;;;;;;;;7397014;19;20150;-86
2022/06/21 06:54:21;;;;;;;8.75;7.13;;;;;;;;;;7398913;19;20165;-88
2022/06/21 06:56:53;;;;;;;11.43;7.00;;;;;;;;;;7401703;19;20129;-90
2022/06/21 06:59:19;;;;;;;7.88;7.07;;;;;;;;;;7401495;19;20649;-87
2022/06/21 07:01:50;;;;;;;7.85;6.80;;;;;;;;;;7404538;19;20125;-90
2022/06/21 07:04:20;;;;;;;8.05;7.20;;;;;;;;;;7398479;19;20137;-89
2022/06/21 07:06:54;;;;;;;10.10;6.90;;;;;;;;;;7402989;19;20124;-90
2022/06/21 07:09:25;;;;;;;7.45;6.68;;;;;;;;;;7405036;19;20132;-89
2022/06/21 07:11:52;;;;;;;10.15;7.07;;;;;;;;;;7405780;19;20126;-88
2022/06/21 07:14:26;;;;;;;7.97;6.95;;;;;;;;;;7409090;19;20113;-89
2022/06/21 07:16:59;;;;;;;8.48;7.50;;;;;;;;;;7407683;19;20590;-89
2022/06/21 07:19:25;;;;;;;9.20;7.13;;;;;;;;;;7409175;19;20129;-88
2022/06/21 07:21:51;;;;;;;9.52;8.40;;;;;;;;;;7405530;19;20161;-87
2022/06/21 07:24:19;;;;;;;9.95;8.05;;;;;;;;;;7411442;19;20117;-89
2022/06/21 07:27:22;;;;;;;9.52;7.18;;;;;;;;;;7405098;19;20180;-89
2022/06/21 07:29:57;;;;;;;8.77;7.55;;;;;;;;;;7404025;19;20120;-90
2022/06/21 07:32:26;;;;;;;9.25;7.28;;;;;;;;;;7401649;19;20171;-89
2022/06/21 07:34:55;;;;;;;7.28;6.68;;;;;;;;;;7403867;19;20148;-90
2022/06/21 07:37:34;;;;;;;9.57;7.45;;;;;;;;;;7405415;19;20582;-88
2022/06/21 07:40:33;;;;;;;6.75;6.03;;;;;;;;;;7402876;19;20140;-90
2022/06/21 07:43:07;;;;;;;8.90;7.05;;;;;;;;;;7401849;19;20510;-89
2022/06/21 07:45:42;;;;;;;9.00;7.57;;;;;;;;;;7399867;19;20154;-89
2022/06/21 07:48:09;;;;;;;10.32;6.82;;;;;;;;;;7403103;19;20224;-88
2022/06/21 07:50:52;;;;;;;8.45;7.18;;;;;;;;;;7400040;19;20172;-88
2022/06/21 07:53:34;;;;;;;7.93;6.93;;;;;;;;;;7403108;19;20121;-88
2022/06/21 07:56:06;;;;;;;9.05;7.53;;;;;;;;;;7403610;19;20154;-89
2022/06/21 07:58:40;;;;;;;8.50;7.57;;;;;;;;;;7399577;19;20121;-88
2022/06/21 08:07:06;;;;;;;8.40;7.60;;;;;;;;;;7403010;19;20149;-87
2022/06/21 08:09:40;;;;;;;9.25;8.32;;;;;;;;;;7400231;19;20136;-89
2022/06/21 08:12:06;;;;;;;8.63;7.20;;;;;;;;;;7401251;19;20168;-90
2022/06/21 08:14:34;;;;;;;8.18;7.38;;;;;;;;;;7401847;19;20491;-87
2022/06/21 08:17:04;;;;;;;9.43;8.25;;;;;;;;;;7400960;19;20133;-89
2022/06/21 08:19:50;;;;;;;10.25;7.25;;;;;;;;;;7397786;19;20132;-88
2022/06/21 08:22:37;;;;;;;8.90;7.03;;;;;;;;;;7395517;19;20161;-89
2022/06/21 08:25:09;;;;;;;9.80;7.82;;;;;;;;;;7395866;19;20140;-88
2022/06/21 08:27:41;;;;;;;10.20;7.03;;;;;;;;;;7398043;19;20137;-88
2022/06/21 08:30:18;;;;;;;9.05;8.15;;;;;;;;;;7398069;19;20129;-88
2022/06/21 08:32:53;;;;;;;13.68;8.45;;;;;;;;;;7398254;19;20613;-88
2022/06/21 08:35:34;;;;;;;8.50;7.30;;;;;;;;;;7398358;19;20141;-88
2022/06/21 08:38:18;;;;;;;9.23;8.23;;;;;;;;;;7399142;19;20140;-89
2022/06/21 08:40:52;;;;;;;9.27;8.38;;;;;;;;;;7399173;19;20157;-89
2022/06/21 08:43:21;;;;;;;10.02;9.13;;;;;;;;;;7400274;19;20125;-89
2022/06/21 08:46:03;;;;;;;10.20;8.40;;;;;;;;;;7400403;19;20132;-89
2022/06/21 08:48:40;;;;;;;8.57;7.53;;;;;;;;;;7400668;19;20125;-85
2022/06/21 08:51:15;;;;;;;10.15;8.30;;;;;;;;;;7402019;19;20157;-84
2022/06/21 08:53:50;;;;;;;8.45;7.65;;;;;;;;;;7401342;19;20133;-85
2022/06/21 08:56:35;;;;;;;8.73;7.82;;;;;;;;;;7404689;19;20125;-84
2022/06/21 08:59:20;;;;;;;13.13;8.98;;;;;;;;;;7402995;19;20133;-85
2022/06/21 09:01:52;;;;;;;12.90;8.77;;;;;;;;;;7400051;19;20178;-84
2022/06/21 09:04:37;;;;;;;10.25;7.10;;;;;;;;;;7400762;19;20140;-85
2022/06/21 09:07:21;;;;;;;8.98;8.05;;;;;;;;;;7400917;19;20172;-85
2022/06/21 09:10:01;;;;;;;7.35;6.40;;;;;;;;;;7402692;19;20137;-85
2022/06/21 09:12:56;;;;;;;9.35;7.55;;;;;;;;;;7398754;19;20164;-87
2022/06/21 09:15:22;;;;;;;10.25;7.88;;;;;;;;;;7399438;19;20144;-85
2022/06/21 09:17:51;;;;;;;10.98;8.10;;;;;;;;;;7403702;19;20513;-89
2022/06/21 09:20:34;;;;;;;8.80;7.90;;;;;;;;;;7400382;19;20137;-86
2022/06/21 09:23:18;;;;;;;13.02;8.30;;;;;;;;;;7398346;19;20160;-87
2022/06/21 09:25:46;;;;;;;9.48;6.80;;;;;;;;;;7396100;19;20137;-85
2022/06/21 09:28:27;;;;;;;9.40;8.50;;;;;;;;;;7400868;19;20177;-86
2022/06/21 09:30:58;;;;;;;10.77;7.43;;;;;;;;;;7400761;19;20188;-86
2022/06/21 09:33:31;;;;;;;11.23;7.65;;;;;;;;;;7398430;19;20148;-86
2022/06/21 09:36:02;;;;;;;9.18;8.05;;;;;;;;;;7398521;19;20125;-86
2022/06/21 09:38:47;;;;;;;10.68;7.50;;;;;;;;;;7401472;19;20125;-86
2022/06/21 09:41:20;;;;;;;7.95;7.15;;;;;;;;;;7401106;19;20137;-86
2022/06/21 09:44:06;;;;;;;9.07;7.38;;;;;;;;;;7399044;19;20137;-86
2022/06/21 09:46:41;;;;;;;10.23;7.60;;;;;;;;;;7397973;19;20129;-88
2022/06/21 09:49:23;;;;;;;9.13;8.23;;;;;;;;;;7400726;19;20196;-85
2022/06/21 09:51:49;;;;;;;8.52;7.68;;;;;;;;;;7397139;19;20204;-87
2022/06/21 09:54:21;;;;;;;9.80;8.23;;;;;;;;;;7395794;19;20395;-86
2022/06/21 09:56:55;;;;;;;10.00;7.82;;;;;;;;;;7395341;19;20140;-87
2022/06/21 09:59:27;;;;;;;12.77;7.72;;;;;;;;;;7395188;19;20198;-87
2022/06/21 10:01:58;;;;;;;8.27;7.45;;;;;;;;;;7392419;19;20164;-88
2022/06/21 10:04:41;;;;;;;13.85;8.23;;;;;;;;;;7400885;19;20529;-86
2022/06/21 10:07:07;;;;;;;8.77;7.65;;;;;;;;;;7399754;19;20125;-87
2022/06/21 10:09:52;;;;;;;10.13;8.73;;;;;;;;;;7401891;19;20133;-88
2022/06/21 10:12:21;;;;;;;12.05;9.00;;;;;;;;;;7399835;19;20157;-87
2022/06/21 10:15:06;;;;;;;9.80;8.00;;;;;;;;;;7398378;19;20156;-86
2022/06/21 10:17:44;;;;;;;10.00;8.02;;;;;;;;;;7401655;19;20476;-88
2022/06/21 10:20:10;;;;;;;8.40;7.40;;;;;;;;;;7403288;19;20125;-87
2022/06/21 10:22:43;;;;;;;9.93;7.38;;;;;;;;;;7406263;19;20614;-88
2022/06/21 10:25:14;;;;;;;11.38;8.98;;;;;;;;;;7403784;19;20500;-88
2022/06/21 10:27:43;;;;;;;9.63;8.68;;;;;;;;;;7406894;19;20496;-88
2022/06/21 10:30:28;;;;;;;9.82;8.77;;;;;;;;;;7404657;19;20132;-87
2022/06/21 10:33:07;;;;;;;8.27;7.57;;;;;;;;;;7403421;19;20140;-88
2022/06/21 10:35:44;;;;;;;8.02;7.05;;;;;;;;;;7406285;19;20478;-86
2022/06/21 10:38:14;;;;;;;11.07;8.07;;;;;;;;;;7404772;19;20141;-88
2022/06/21 10:40:43;;;;;;;11.70;8.45;;;;;;;;;;7402756;19;20232;-87
2022/06/21 10:43:09;;;;;;;8.77;7.93;;;;;;;;;;7405223;19;20144;-88
2022/06/21 10:45:55;;;;;;;9.00;7.82;;;;;;;;;;7400925;19;20129;-88
2022/06/21 10:48:30;;;;;;;9.57;6.97;;;;;;;;;;7404680;19;20607;-87
2022/06/21 10:51:15;;;;;;;9.32;7.72;;;;;;;;;;7403582;19;20146;-88
2022/06/21 10:53:41;;;;;;;11.32;8.38;;;;;;;;;;7406503;19;20141;-88
2022/06/21 10:59:05;;;;;;;10.07;7.40;;;;;;;;;;7405216;19;20127;-89
2022/06/21 11:01:52;;;;;;;11.50;7.80;;;;;;;;;;7402018;19;20161;-88
2022/06/21 11:04:29;;;;;;;9.35;7.70;;;;;;;;;;7408408;19;20136;-89
2022/06/21 11:07:13;;;;;;;8.88;8.18;;;;;;;;;;7399332;19;20143;-88
2022/06/21 11:09:46;;;;;;;9.57;6.93;;;;;;;;;;7399892;19;20143;-88
2022/06/21 11:15:18;;;;;;;9.40;7.70;;;;;;;;;;7400639;19;20126;-89
2022/06/21 11:17:53;;;;;;;12.48;8.60;;;;;;;;;;7402204;19;20117;-90
2022/06/21 11:20:23;;;;;;;7.60;6.90;;;;;;;;;;7400129;19;20136;-89
2022/06/21 11:23:01;;;;;;;9.20;8.45;;;;;;;;;;7399537;19;20133;-88
2022/06/21 11:25:30;;;;;;;9.40;7.88;;;;;;;;;;7398175;19;20819;-90
2022/06/21 11:28:06;;;;;;;9.95;8.15;;;;;;;;;;7400067;19;20160;-90
2022/06/21 11:30:38;;;;;;;8.07;7.32;;;;;;;;;;7405594;19;20133;-89
2022/06/21 11:33:14;;;;;;;10.07;7.82;;;;;;;;;;7404495;19;20556;-89
2022/06/21 11:35:41;;;;;;;9.18;7.38;;;;;;;;;;7402385;19;20132;-89
2022/06/21 11:38:07;;;;;;;9.32;8.32;;;;;;;;;;7404520;19;20120;-88
2022/06/21 11:40:54;;;;;;;9.85;7.47;;;;;;;;;;7402295;19;20168;-88
2022/06/21 11:43:30;;;;;;;9.50;8.45;;;;;;;;;;7403497;19;20144;-88
2022/06/21 11:45:59;;;;;;;9.82;7.85;;;;;;;;;;7401534;19;20136;-88
2022/06/21 11:48:45;;;;;;;9.27;8.15;;;;;;;;;;7404246;19;20144;-89
2022/06/21 11:51:11;;;;;;;10.32;7.55;;;;;;;;;;7401137;19;20169;-89
2022/06/21 11:53:55;;;;;;;9.07;8.18;;;;;;;;;;7402273;19;20630;-88
2022/06/21 11:56:41;;;;;;;9.35;7.82;;;;;;;;;;7404418;19;20145;-89
2022/06/21 11:59:12;;;;;;;8.80;7.72;;;;;;;;;;7404173;19;20153;-90
2022/06/21 12:01:56;;;;;;;8.52;7.45;;;;;;;;;;7400573;19;20171;-90
2022/06/21 12:04:38;;;;;;;11.40;7.75;;;;;;;;;;7402208;19;20161;-88
2022/06/21 12:07:33;;;;;;;9.25;7.00;;;;;;;;;;7403026;19;20137;-89
2022/06/21 12:10:07;;;;;;;11.82;7.95;;;;;;;;;;7397486;19;20154;-88
2022/06/21 12:12:36;;;;;;;10.45;6.22;;;;;;;;;;7398087;19;20484;-90
2022/06/21 12:15:21;;;;;;;9.13;6.63;;;;;;;;;;7397939;19;20133;-88
2022/06/21 12:17:51;;;;;;;8.57;6.35;;;;;;;;;;7399996;19;20160;-87
2022/06/21 12:20:41;;;;;;;11.45;7.35;;;;;;;;;;7395478;19;20140;-87
2022/06/21 12:23:10;;;;;;;9.30;6.50;;;;;;;;;;7406227;19;20137;-88
2022/06/21 12:25:36;;;;;;;10.82;6.80;;;;;;;;;;7400976;19;20125;-87
2022/06/21 12:28:05;;;;;;;10.27;6.63;;;;;;;;;;7394528;19;20144;-88
2022/06/21 12:30:31;;;;;;;8.98;6.68;;;;;;;;;;7392739;19;20160;-87
2022/06/21 12:33:02;;;;;;;9.18;6.25;;;;;;;;;;7393879;19;20121;-88
2022/06/21 12:35:39;;;;;;;11.70;7.50;;;;;;;;;;7395503;19;20620;-88
2022/06/21 12:38:09;;;;;;;8.45;6.65;;;;;;;;;;7396792;19;20129;-88
2022/06/21 12:40:37;;;;;;;9.32;6.68;;;;;;;;;;7395803;19;20157;-86
2022/06/21 12:43:27;;;;;;;9.65;6.72;;;;;;;;;;7398652;19;20527;-88
2022/06/21 12:46:04;;;;;;;8.63;6.38;;;;;;;;;;7410845;19;20141;-87
2022/06/21 12:48:37;;;;;;;12.35;7.25;;;;;;;;;;7417704;19;20117;-88
2022/06/21 12:51:28;;;;;;;9.60;6.82;;;;;;;;;;7420393;19;20161;-88
2022/06/21 12:54:00;;;;;;;12.50;6.53;;;;;;;;;;7422308;19;20237;-88
2022/06/21 12:56:45;;;;;;;8.73;7.00;;;;;;;;;;7423520;19;20136;-89
2022/06/21 12:59:24;;;;;;;10.07;7.30;;;;;;;;;;7424552;19;20124;-89
2022/06/21 13:01:50;;;;;;;7.97;7.20;;;;;;;;;;7423663;19;20153;-87
2022/06/21 13:04:36;;;;;;;8.75;6.90;;;;;;;;;;7406356;19;20143;-88
2022/06/21 13:07:02;;;;;;;13.90;7.38;;;;;;;;;;7399057;19;20143;-88
2022/06/21 13:09:41;;;;;;;9.60;7.60;;;;;;;;;;7408875;19;20140;-88
2022/06/21 13:12:10;;;;;;;12.75;7.60;;;;;;;;;;7408516;19;20136;-88
2022/06/21 13:14:55;;;;;;;10.77;7.93;;;;;;;;;;7402381;19;20565;-89
2022/06/21 13:17:21;;;;;;;10.77;7.75;;;;;;;;;;7401238;19;20128;-90
2022/06/21 13:19:56;;;;;;;9.70;7.55;;;;;;;;;;7413965;19;20190;-89
2022/06/21 13:22:23;;;;;;;8.00;6.90;;;;;;;;;;7396148;19;20180;-89
2022/06/21 13:25:13;;;;;;;8.65;7.32;;;;;;;;;;7402324;19;20204;-89
2022/06/21 13:27:58;;;;;;;14.85;6.63;;;;;;;;;;7396603;19;20135;-88
2022/06/21 13:30:46;;;;;;;10.50;6.90;;;;;;;;;;7397102;19;20128;-89
2022/06/21 13:33:14;;;;;;;10.32;6.80;;;;;;;;;;7403264;19;20135;-89
2022/06/21 13:35:46;;;;;;;11.70;7.03;;;;;;;;;;7402617;19;20174;-89
2022/06/21 13:38:36;;;;;;;9.75;6.30;;;;;;;;;;7402183;19;20146;-88
2022/06/21 13:42:37;;;;;;;8.63;6.32;;;;;;;;;;7414557;19;20180;-89
2022/06/21 13:43:59;;;;;;;10.82;7.30;;;;;;;;;;7424840;19;20140;-89
2022/06/21 13:46:27;;;;;;;8.65;5.88;;;;;;;;;;7422922;19;20133;-89
2022/06/21 13:48:56;;;;;;;10.70;6.30;;;;;;;;;;7418967;19;20184;-89
2022/06/21 13:51:26;;;;;;;13.35;6.70;;;;;;;;;;7422550;19;20190;-89
2022/06/21 13:53:56;;;;;;;13.23;6.32;;;;;;;;;;7420799;19;20138;-88
2022/06/21 13:56:40;;;;;;;11.35;6.50;;;;;;;;;;7421790;19;20129;-88
2022/06/21 13:59:10;;;;;;;11.60;6.60;;;;;;;;;;7421761;19;20128;-88
2022/06/21 14:01:41;;;;;;;7.82;6.00;;;;;;;;;;7421880;19;20167;-89
2022/06/21 14:04:07;;;;;;;9.80;6.00;;;;;;;;;;7418044;19;20135;-89
2022/06/21 14:06:54;;;;;;;9.82;6.22;;;;;;;;;;7422065;19;20168;-88
2022/06/21 14:09:39;;;;;;;8.88;5.85;;;;;;;;;;7420770;19;20136;-89
2022/06/21 14:12:24;;;;;;;10.38;6.65;;;;;;;;;;7421885;19;20160;-89
2022/06/21 14:14:59;;;;;;;8.25;6.20;;;;;;;;;;7415178;19;20137;-88
2022/06/21 14:17:32;;;;;;;10.00;7.03;;;;;;;;;;7387289;19;20144;-90
2022/06/21 14:19:58;;;;;;;11.85;6.38;;;;;;;;;;7393172;19;20128;-89
2022/06/21 14:22:45;;;;;;;9.70;6.32;;;;;;;;;;7398997;19;20168;-89
2022/06/21 14:25:17;;;;;;;10.05;5.97;;;;;;;;;;7412099;19;20163;-90
2022/06/21 14:27:55;;;;;;;8.15;5.88;;;;;;;;;;7408996;19;20145;-90
2022/06/21 14:30:28;;;;;;;10.50;7.05;;;;;;;;;;7408794;19;20121;-89
2022/06/21 14:32:57;;;;;;;8.30;6.00;;;;;;;;;;7401018;19;20212;-90
2022/06/21 14:35:43;;;;;;;12.25;6.80;;;;;;;;;;7391683;19;20155;-89
2022/06/21 14:38:15;;;;;;;10.93;6.25;;;;;;;;;;7392883;19;20555;-90
2022/06/21 14:40:46;;;;;;;8.45;6.22;;;;;;;;;;7391211;19;20164;-89
2022/06/21 14:43:31;;;;;;;9.43;6.90;;;;;;;;;;7387542;19;20140;-89
2022/06/21 14:46:01;;;;;;;11.05;6.53;;;;;;;;;;7389498;19;20144;-88
2022/06/21 14:48:33;;;;;;;10.77;6.20;;;;;;;;;;7393536;19;20159;-91
2022/06/21 14:54:07;;;;;;;10.75;6.55;;;;;;;;;;7397300;19;20136;-89
2022/06/21 14:56:38;;;;;;;12.07;6.60;;;;;;;;;;7399864;19;20168;-90
2022/06/21 14:59:26;;;;;;;10.68;6.60;;;;;;;;;;7401616;19;20160;-89
2022/06/21 15:01:54;;;;;;;12.43;7.22;;;;;;;;;;7397854;19;20342;-87
2022/06/21 15:04:26;;;;;;;11.00;6.43;;;;;;;;;;7402086;19;20632;-86
2022/06/21 15:07:11;;;;;;;10.55;6.20;;;;;;;;;;7420839;19;20168;-86
2022/06/21 15:09:43;;;;;;;10.07;5.90;;;;;;;;;;7418876;19;20163;-86
2022/06/21 15:12:12;;;;;;;8.35;5.80;;;;;;;;;;7416597;19;20152;-86
2022/06/21 15:14:38;;;;;;;8.95;5.78;;;;;;;;;;7415404;19;20133;-86
2022/06/21 15:17:07;;;;;;;8.48;5.70;;;;;;;;;;7417082;19;20180;-85
2022/06/21 15:19:54;;;;;;;14.05;5.70;;;;;;;;;;7423993;19;20145;-85
2022/06/21 15:22:41;;;;;;;13.43;5.60;;;;;;;;;;7422951;19;20132;-86
2022/06/21 15:25:10;;;;;;;9.63;5.60;;;;;;;;;;7420454;19;20133;-85
2022/06/21 15:27:39;;;;;;;8.15;5.53;;;;;;;;;;7424521;19;20133;-85
2022/06/21 15:30:06;;;;;;;8.93;5.88;;;;;;;;;;7427332;19;20131;-85
2022/06/21 15:32:43;;;;;;;12.15;5.75;;;;;;;;;;7424947;19;20129;-85
2022/06/21 15:35:09;;;;;;;7.78;5.20;;;;;;;;;;7426127;19;20551;-85
2022/06/21 15:37:40;;;;;;;13.52;5.38;;;;;;;;;;7424787;19;20226;-84
2022/06/21 15:40:11;;;;;;;9.18;4.60;;;;;;;;;;7423954;19;20125;-83
2022/06/21 15:43:04;;;;;;;8.52;5.25;;;;;;;;;;7425140;19;20121;-83
2022/06/21 15:45:32;;;;;;;11.45;4.78;;;;;;;;;;7423010;19;20138;-84
2022/06/21 15:51:01;;;;;;;7.65;5.13;;;;;;;;;;7396604;19;20131;-84
2022/06/21 15:53:45;;;;;;;9.55;4.78;;;;;;;;;;7399542;19;20146;-85
2022/06/21 15:56:22;;;;;;;7.45;4.38;;;;;;;;;;7398769;19;20129;-85
2022/06/21 15:58:48;;;;;;;10.13;4.75;;;;;;;;;;7401120;19;20130;-85
2022/06/21 16:01:33;;;;;;;9.07;4.40;;;;;;;;;;7396019;19;20205;-86
2022/06/21 16:04:18;;;;;;;12.10;4.78;;;;;;;;;;7400313;19;20137;-84
2022/06/21 16:06:47;;;;;;;9.10;4.38;;;;;;;;;;7395323;19;20162;-87
2022/06/21 16:09:18;;;;;;;10.38;5.03;;;;;;;;;;7400042;19;20125;-87
2022/06/21 16:11:55;;;;;;;10.25;4.45;;;;;;;;;;7397431;19;20201;-84
2022/06/21 16:14:27;;;;;;;8.07;4.68;;;;;;;;;;7399601;19;20549;-85
2022/06/21 16:16:59;;;;;;;9.52;4.70;;;;;;;;;;7397530;19;20152;-85
2022/06/21 16:19:25;;;;;;;13.20;4.88;;;;;;;;;;7397739;19;20148;-85
2022/06/21 16:21:53;;;;;;;12.25;4.88;;;;;;;;;;7398062;19;20172;-85
2022/06/21 16:24:20;;;;;;;12.65;4.70;;;;;;;;;;7398603;19;20133;-85
2022/06/21 16:26:53;;;;;;;9.88;4.60;;;;;;;;;;7396884;19;20131;-85
2022/06/21 16:29:22;;;;;;;9.38;4.80;;;;;;;;;;7400763;19;20128;-85
2022/06/21 16:34:40;;;;;;;10.10;4.90;;;;;;;;;;7403332;19;20148;-85
2022/06/21 16:37:14;;;;;;;11.52;5.63;;;;;;;;;;7401737;19;20145;-85
2022/06/21 16:39:51;;;;;;;11.18;4.82;;;;;;;;;;7403496;19;20128;-86
2022/06/21 16:45:05;;;;;;;9.13;5.10;;;;;;;;;;7402226;19;20135;-85
2022/06/21 16:47:46;;;;;;;10.02;5.53;;;;;;;;;;7401088;19;20188;-85
2022/06/21 16:50:27;;;;;;;6.97;4.60;;;;;;;;;;7397636;19;20137;-85
2022/06/21 16:52:54;;;;;;;21.25;5.78;;;;;;;;;;7395864;19;20133;-91
2022/06/21 16:55:21;;;;;;;10.93;4.80;;;;;;;;;;7398116;19;20128;-91
2022/06/21 16:57:52;;;;;;;8.52;4.97;;;;;;;;;;7398324;19;20542;-90
2022/06/21 17:00:35;;;;;;;10.13;5.18;;;;;;;;;;7398521;19;20113;-91
2022/06/21 17:03:05;;;;;;;10.40;4.65;;;;;;;;;;7398980;19;20480;-87
2022/06/21 17:05:36;;;;;;;8.18;4.80;;;;;;;;;;7399112;19;20137;-87
2022/06/21 17:08:02;;;;;;;8.52;4.63;;;;;;;;;;7400491;19;20176;-86
2022/06/21 17:13:14;;;;;;;7.43;4.75;;;;;;;;;;7404690;19;20124;-85
2022/06/21 17:15:41;;;;;;;9.30;4.60;;;;;;;;;;7400240;19;20297;-86
2022/06/21 17:18:10;;;;;;;14.77;5.38;;;;;;;;;;7401029;19;20158;-89
2022/06/21 17:20:59;;;;;;;9.50;5.18;;;;;;;;;;7407070;19;20195;-86
2022/06/21 17:23:35;;;;;;;9.32;4.97;;;;;;;;;;7405814;19;20141;-87
2022/06/21 17:26:30;;;;;;;14.75;5.70;;;;;;;;;;7406872;19;20146;-86
2022/06/21 17:28:58;;;;;;;7.97;4.38;;;;;;;;;;7394742;19;20149;-87
2022/06/21 17:47:31;;;;;;;10.18;4.93;;;;;;;;;;7397064;19;20116;-85
2022/06/21 17:50:31;;;;;;;6.55;4.35;;;;;;;;;;7398209;19;20136;-85
2022/06/21 17:53:36;;;;;;;7.70;5.18;;;;;;;;;;7397012;19;20145;-87
2022/06/21 17:56:09;;;;;;;6.68;4.90;;;;;;;;;;7396213;19;20133;-87
2022/06/21 17:58:56;;;;;;;8.48;4.97;;;;;;;;;;7393356;19;20145;-87
2022/06/21 18:01:41;;;;;;;;;;;;;;;;;;;;;
2022/06/21 18:04:33;;;;;;;9.05;5.03;;;;;;;;;;7393512;19;20140;-85
2022/06/21 18:07:05;;;;;;;8.32;4.40;;;;;;;;;;7390527;19;20144;-84
2022/06/21 18:09:53;;;;;;;8.25;5.70;;;;;;;;;;7387421;19;20140;-87
2022/06/21 18:12:20;;;;;;;14.45;5.40;;;;;;;;;;7389479;19;20144;-88
2022/06/21 18:14:47;;;;;;;18.65;5.93;;;;;;;;;;7386560;19;20144;-88
2022/06/21 18:17:34;;;;;;;13.90;6.10;;;;;;;;;;7391116;19;20610;-88
2022/06/21 18:20:02;;;;;;;26.63;7.43;;;;;;;;;;7392913;19;20136;-94
2022/06/21 18:22:39;;;;;;;17.70;5.90;;;;;;;;;;7392626;19;20177;-90
2022/06/21 18:25:14;;;;;;;21.10;6.68;;;;;;;;;;7398271;19;20136;-90
2022/06/21 18:27:50;;;;;;;12.40;5.35;;;;;;;;;;7398797;19;20140;-90
2022/06/21 18:30:41;;;;;;;15.65;5.55;;;;;;;;;;7397497;19;20208;-91
2022/06/21 18:33:09;;;;;;;18.65;5.80;;;;;;;;;;7394596;19;20129;-90
2022/06/21 18:35:41;;;;;;;17.55;6.00;;;;;;;;;;7397230;19;20132;-87
2022/06/21 18:38:07;;;;;;;16.98;5.93;;;;;;;;;;7402027;19;20125;-84
2022/06/21 18:40:39;;;;;;;24.65;6.32;;;;;;;;;;7397344;19;20176;-83
2022/06/21 18:43:05;;;;;;;16.48;6.30;;;;;;;;;;7400550;19;20125;-84
2022/06/21 18:45:37;;;;;;;13.65;5.55;;;;;;;;;;7398334;19;20164;-84
2022/06/21 18:48:25;;;;;;;10.38;5.85;;;;;;;;;;7392673;19;20161;-85
2022/06/21 18:51:01;;;;;;;19.88;6.50;;;;;;;;;;7390799;19;20171;-89
2022/06/21 18:53:27;;;;;;;11.48;5.65;;;;;;;;;;7396793;19;20196;-88
2022/06/21 18:56:11;;;;;;;10.70;5.57;;;;;;;;;;7396536;19;20154;-86
2022/06/21 18:58:37;;;;;;;13.40;6.28;;;;;;;;;;7388486;19;20561;-85
2022/06/21 19:01:10;;;;;;;7.88;5.80;;;;;;;;;;7390268;19;20493;-85
2022/06/21 19:03:44;;;;;;;13.98;6.70;;;;;;;;;;7390744;19;20129;-82
2022/06/21 19:09:14;;;;;;;8.68;6.25;;;;;;;;;;7396489;19;20185;-83
2022/06/21 19:12:18;;;;;;;12.70;6.20;;;;;;;;;;7393793;19;20175;-83
2022/06/21 19:14:59;;;;;;;9.75;6.32;;;;;;;;;;7392421;19;20125;-84
2022/06/21 19:17:35;;;;;;;17.98;14.32;;;;;;;;;;7393749;19;20252;-85
2022/06/21 19:20:20;;;;;;;17.30;11.77;;;;;;;;;;7394236;19;20125;-82
2022/06/21 19:22:49;;;;;;;12.65;7.88;;;;;;;;;;7394342;19;20133;-84
